createdAt,value
2022-11-25T00:06:46.721Z,2.59
2022-11-25T00:16:23.668Z,2.4
2022-11-25T00:26:00.069Z,2.1
2022-11-25T00:35:36.472Z,2.03
2022-11-25T00:45:13.144Z,2.55
2022-11-25T00:54:50.271Z,2.47
2022-11-25T01:04:27.384Z,2.2
2022-11-25T01:14:03.784Z,2.27
2022-11-25T01:23:40.587Z,2.04
2022-11-25T01:33:17.427Z,2.18
2022-11-25T01:42:54.177Z,1.52
2022-11-25T01:52:30.208Z,1.42
2022-11-25T02:02:07.112Z,1.66
2022-11-25T02:11:43.083Z,1.8
2022-11-25T02:21:20.037Z,1.13
2022-11-25T02:30:56.474Z,1.25
2022-11-25T02:40:33.006Z,1.31
2022-11-25T02:50:09.179Z,0.84
2022-11-25T02:59:45.311Z,1.27
2022-11-25T03:09:22.237Z,1.11
2022-11-25T03:18:59.170Z,1.47
2022-11-25T03:28:36.240Z,1.51
2022-11-25T03:38:13.146Z,1.64
2022-11-25T03:47:49.807Z,1.48
2022-11-25T03:57:26.733Z,1.53
2022-11-25T04:07:03.604Z,1.37
2022-11-25T04:16:40.000Z,0.83
2022-11-25T04:26:16.170Z,0.81
2022-11-25T04:35:53.057Z,0.85
2022-11-25T04:45:36.911Z,0.81
2022-11-25T04:55:06.404Z,0.61
2022-11-25T05:04:42.654Z,0.74
2022-11-25T05:14:19.184Z,0.81
2022-11-25T05:23:56.363Z,0.79
2022-11-25T05:33:32.694Z,0.7
2022-11-25T05:43:09.311Z,0.63
2022-11-25T05:52:45.777Z,0.71
2022-11-25T06:02:22.763Z,0.67
2022-11-25T06:11:59.386Z,0.57
2022-11-25T06:21:35.920Z,0.41
2022-11-25T06:31:12.375Z,0.61
2022-11-25T06:40:49.119Z,0.76
2022-11-25T06:50:25.842Z,0.59
2022-11-25T07:00:02.581Z,0.56
2022-11-25T07:09:39.512Z,0.61
2022-11-25T07:19:16.571Z,0.61
2022-11-25T07:28:53.518Z,0.77
2022-11-25T07:38:30.531Z,1.27
2022-11-25T07:48:08.035Z,1.66
2022-11-25T07:57:45.636Z,2.09
2022-11-25T08:07:23.451Z,2.24
2022-11-25T08:17:00.679Z,2.85
2022-11-25T08:26:38.411Z,3.03
2022-11-25T08:36:15.785Z,3.25
2022-11-25T08:45:53.545Z,3.58
2022-11-25T08:55:31.223Z,3.84
2022-11-25T09:05:09.050Z,4.17
2022-11-25T09:14:47.568Z,4.61
2022-11-25T09:24:25.144Z,4.86
2022-11-25T09:34:02.247Z,5.16
2022-11-25T09:53:17.032Z,5.15
2022-11-25T10:02:54.772Z,5.51
2022-11-25T10:12:32.052Z,5.78
2022-11-25T10:31:46.701Z,6.24
2022-11-25T10:41:23.232Z,6.52
2022-11-25T10:51:01.079Z,6.98
2022-11-25T11:00:40.573Z,7.43
2022-11-25T11:10:19.872Z,7.89
2022-11-25T11:19:56.549Z,8.33
2022-11-25T11:29:32.649Z,8.47
2022-11-25T11:39:11.706Z,8.77
2022-11-25T11:48:53.045Z,9.14
2022-11-25T11:58:25.122Z,8.75
2022-11-25T12:08:01.669Z,8.72
2022-11-25T12:17:38.115Z,8.57
2022-11-25T12:27:15.345Z,8.66
2022-11-25T12:36:52.313Z,8.72
2022-11-25T12:46:29.718Z,8.72
2022-11-25T12:56:07.367Z,8.84
2022-11-25T13:05:44.537Z,8.92
2022-11-25T13:15:21.508Z,8.69
2022-11-25T13:24:57.165Z,8.47
2022-11-25T13:34:33.928Z,8.25
2022-11-25T13:44:10.729Z,8.15
2022-11-25T13:53:47.449Z,7.94
2022-11-25T14:03:24.095Z,7.76
2022-11-25T14:13:00.929Z,7.31
2022-11-25T14:22:37.698Z,7.25
2022-11-25T14:32:14.282Z,7.11
2022-11-25T14:41:51.020Z,6.94
2022-11-25T14:51:27.841Z,6.76
2022-11-25T15:01:05.205Z,6.78
2022-11-25T15:10:41.592Z,6.7
2022-11-25T15:20:19.098Z,6.65
2022-11-25T15:29:56.089Z,6.48
2022-11-25T15:39:33.000Z,6.46
2022-11-25T15:58:46.780Z,6.35
2022-11-25T16:08:23.340Z,6.28
2022-11-25T16:18:17.811Z,6.29
2022-11-25T16:27:36.393Z,6.25
2022-11-25T16:37:13.244Z,6.26
2022-11-25T16:46:49.972Z,5.97
2022-11-25T16:56:25.732Z,5.58
2022-11-25T17:06:02.208Z,5.49
2022-11-25T17:15:39.125Z,4.99
2022-11-25T17:25:15.143Z,5.01
2022-11-25T17:34:51.786Z,4.75
2022-11-25T17:44:28.098Z,4.51
2022-11-25T17:54:04.995Z,4.62
2022-11-25T18:03:42.097Z,4.71
2022-11-25T18:13:19.236Z,4.79
2022-11-25T18:22:56.147Z,4.75
2022-11-25T18:32:32.960Z,4.85
2022-11-25T18:42:10.023Z,4.95
2022-11-25T18:51:46.897Z,4.89
2022-11-25T19:01:24.013Z,4.95
2022-11-25T19:11:00.986Z,5.13
2022-11-25T19:20:37.686Z,5.16
2022-11-25T19:30:14.329Z,4.98
2022-11-25T19:39:51.087Z,4.82
2022-11-25T19:49:27.497Z,4.69
2022-11-25T19:59:04.394Z,4.63
2022-11-25T20:08:40.999Z,4.49
2022-11-25T20:18:18.613Z,4.72
2022-11-25T20:37:32.603Z,4.88
2022-11-25T20:47:09.315Z,4.97
2022-11-25T20:56:46.166Z,5.41
2022-11-25T21:06:23.378Z,5.33
2022-11-25T21:15:59.760Z,5.32
2022-11-25T21:25:36.481Z,5.25
2022-11-25T21:35:12.869Z,5.03
2022-11-25T21:44:49.526Z,4.82
2022-11-25T21:54:26.580Z,4.52
2022-11-25T22:04:03.353Z,4.58
2022-11-25T22:13:41.164Z,5.03
2022-11-25T22:23:18.276Z,4.71
2022-11-25T22:32:55.333Z,4.69
2022-11-25T22:42:32.196Z,4.96
2022-11-25T22:52:09.331Z,5.02
2022-11-25T23:01:46.202Z,4.93
2022-11-25T23:11:22.789Z,4.8
2022-11-25T23:21:00.159Z,4.93
2022-11-25T23:30:37.490Z,5.08
2022-11-25T23:40:14.537Z,5
2022-11-25T23:49:51.689Z,5.11
2022-11-25T23:59:30.884Z,5.21
